Řízení letového provozu České republiky
Letiste: LKLN Aktualizace: 17.02.2019 01:56:06  UTC
 METAR LKLN 17.02. 02:00 ...
METAR LKLN 170200Z AUTO 00000KT 6000 M03/M03 Q1028=